createdAt,value
2022-11-28T00:01:01.117Z,75.00
2022-11-28T00:03:28.227Z,74.25
2022-11-28T00:05:55.071Z,73.47
2022-11-28T00:08:21.702Z,121.35
2022-11-28T00:10:48.457Z,92.72
2022-11-28T00:13:15.570Z,171.80
2022-11-28T00:15:42.550Z,59.15
2022-11-28T00:18:10.448Z,64.00
2022-11-28T00:20:37.486Z,68.53
2022-11-28T00:23:04.535Z,57.85
2022-11-28T00:25:31.237Z,67.43
2022-11-28T00:27:57.940Z,65.07
2022-11-28T00:30:24.696Z,56.53
2022-11-28T00:32:51.379Z,64.38
2022-11-28T00:35:21.371Z,59.55
2022-11-28T00:37:48.211Z,58.53
2022-11-28T00:40:15.015Z,58.40
2022-11-28T00:42:41.728Z,64.10
2022-11-28T00:45:08.833Z,56.17
2022-11-28T00:47:35.562Z,56.75
2022-11-28T00:50:02.345Z,56.25
2022-11-28T00:52:31.641Z,52.40
2022-11-28T00:54:58.308Z,56.47
2022-11-28T00:57:24.989Z,56.20
2022-11-28T00:59:51.665Z,49.55
2022-11-28T01:02:18.364Z,46.72
2022-11-28T01:04:45.086Z,44.22
2022-11-28T01:07:11.892Z,41.85
2022-11-28T01:09:38.640Z,43.00
2022-11-28T01:12:05.380Z,41.40
2022-11-28T01:14:34.807Z,42.08
2022-11-28T01:17:01.513Z,41.40
2022-11-28T01:19:28.640Z,38.75
2022-11-28T01:21:55.426Z,41.80
2022-11-28T01:24:22.113Z,37.20
2022-11-28T01:26:48.841Z,43.45
2022-11-28T01:29:16.387Z,43.45
2022-11-28T01:31:43.182Z,41.60
2022-11-28T01:34:12.287Z,38.92
2022-11-28T01:36:39.004Z,43.00
2022-11-28T01:39:06.132Z,44.88
2022-11-28T01:41:32.814Z,48.97
2022-11-28T01:43:59.412Z,46.55
2022-11-28T01:46:26.758Z,47.08
2022-11-28T01:48:56.527Z,45.85
2022-11-28T01:51:23.389Z,58.45
2022-11-28T01:53:50.308Z,48.83
2022-11-28T01:56:21.518Z,41.78
2022-11-28T01:58:50.676Z,45.58
2022-11-28T02:01:18.920Z,43.08
2022-11-28T02:03:49.644Z,42.78
2022-11-28T02:06:18.212Z,53.83
2022-11-28T02:08:44.962Z,41.17
2022-11-28T02:11:46.933Z,41.97
2022-11-28T02:14:16.619Z,34.95
2022-11-28T02:16:43.384Z,33.05
2022-11-28T02:19:12.867Z,33.63
2022-11-28T02:21:39.640Z,29.98
2022-11-28T02:24:24.677Z,31.35
2022-11-28T02:26:54.333Z,34.88
2022-11-28T02:29:26.946Z,31.48
2022-11-28T02:32:12.292Z,34.25
2022-11-28T02:34:46.710Z,32.15
2022-11-28T02:37:34.165Z,29.75
2022-11-28T02:40:19.530Z,30.40
2022-11-28T02:42:55.373Z,33.17
2022-11-28T02:45:32.057Z,34.83
2022-11-28T02:48:03.686Z,31.85
2022-11-28T02:50:53.847Z,30.90
2022-11-28T02:53:22.944Z,30.13
2022-11-28T02:55:51.230Z,30.40
2022-11-28T02:58:18.770Z,30.75
2022-11-28T03:00:46.505Z,35.55
2022-11-28T03:03:31.309Z,35.50
2022-11-28T03:05:59.023Z,36.58
2022-11-28T03:08:26.172Z,34.95
2022-11-28T03:10:53.037Z,33.60
2022-11-28T03:13:45.802Z,28.58
2022-11-28T03:16:25.127Z,35.63
2022-11-28T03:18:51.847Z,32.70
2022-11-28T03:21:25.716Z,30.08
2022-11-28T03:26:26.390Z,30.20
2022-11-28T03:29:08.535Z,29.70
2022-11-28T03:31:39.085Z,31.30
2022-11-28T03:34:07.124Z,29.10
2022-11-28T03:36:46.145Z,36.15
2022-11-28T03:39:15.086Z,31.35
2022-11-28T03:41:46.474Z,33.88
2022-11-28T03:44:22.777Z,29.67
2022-11-28T03:46:52.115Z,27.83
2022-11-28T03:49:22.461Z,30.05
2022-11-28T03:51:55.583Z,31.95
2022-11-28T03:54:28.767Z,29.03
2022-11-28T03:57:07.856Z,38.53
2022-11-28T03:59:41.689Z,33.38
2022-11-28T04:02:14.587Z,37.00
2022-11-28T04:04:57.303Z,32.03
2022-11-28T04:07:24.245Z,32.85
2022-11-28T04:09:54.204Z,27.95
2022-11-28T04:12:41.257Z,38.75
2022-11-28T04:15:17.033Z,38.33
2022-11-28T04:17:52.226Z,28.10
2022-11-28T04:20:28.091Z,29.13
2022-11-28T04:22:57.889Z,31.83
2022-11-28T04:25:25.833Z,30.27
2022-11-28T04:27:59.679Z,33.92
2022-11-28T04:30:26.581Z,35.92
2022-11-28T04:32:57.788Z,32.25
2022-11-28T04:35:27.172Z,30.70
2022-11-28T04:37:54.721Z,36.03
2022-11-28T04:40:22.972Z,30.55
2022-11-28T04:42:53.134Z,35.35
2022-11-28T04:45:26.948Z,37.00
2022-11-28T04:47:54.202Z,30.92
2022-11-28T04:50:23.595Z,32.13
2022-11-28T04:53:01.950Z,35.72
2022-11-28T04:55:37.995Z,30.75
2022-11-28T04:58:09.447Z,31.92
2022-11-28T05:00:36.917Z,34.40
2022-11-28T05:03:04.094Z,37.03
2022-11-28T05:05:31.113Z,29.42
2022-11-28T05:07:59.550Z,37.47
2022-11-28T05:10:26.408Z,34.17
2022-11-28T05:12:54.258Z,29.90
2022-11-28T05:15:20.930Z,39.00
2022-11-28T05:17:47.664Z,35.08
2022-11-28T05:20:14.670Z,30.23
2022-11-28T05:22:41.697Z,40.75
2022-11-28T05:25:08.542Z,42.22
2022-11-28T05:27:35.251Z,36.28
2022-11-28T05:30:02.967Z,41.15
2022-11-28T05:32:31.340Z,40.88
2022-11-28T05:34:58.131Z,36.50
2022-11-28T05:37:25.424Z,41.50
2022-11-28T05:39:52.131Z,38.53
2022-11-28T05:42:18.903Z,31.05
2022-11-28T05:44:45.581Z,35.95
2022-11-28T05:47:12.301Z,30.08
2022-11-28T05:49:39.049Z,32.63
2022-11-28T05:52:05.717Z,29.90
2022-11-28T05:54:32.449Z,31.48
2022-11-28T05:56:59.249Z,36.60
2022-11-28T05:59:26.097Z,31.52
2022-11-28T06:01:52.869Z,37.88
2022-11-28T06:04:19.623Z,37.30
2022-11-28T06:06:46.356Z,36.42
2022-11-28T06:09:13.097Z,39.85
2022-11-28T06:11:39.792Z,31.92
2022-11-28T06:14:06.713Z,40.50
2022-11-28T06:16:33.482Z,35.80
2022-11-28T06:19:01.329Z,39.95
2022-11-28T06:21:28.816Z,41.50
2022-11-28T06:23:56.950Z,38.92
2022-11-28T06:26:24.952Z,38.78
2022-11-28T06:28:51.858Z,38.72
2022-11-28T06:31:22.858Z,34.45
2022-11-28T06:33:50.396Z,37.50
2022-11-28T06:36:19.603Z,38.63
2022-11-28T06:38:46.614Z,47.38
2022-11-28T06:41:17.518Z,48.50
2022-11-28T06:43:44.934Z,36.58
2022-11-28T06:46:15.950Z,36.35
2022-11-28T06:48:43.579Z,43.42
2022-11-28T06:51:13.249Z,35.28
2022-11-28T06:53:44.779Z,40.53
2022-11-28T06:56:19.331Z,37.05
2022-11-28T06:58:47.053Z,43.22
2022-11-28T07:01:13.923Z,47.28
2022-11-28T07:03:51.970Z,47.25
2022-11-28T07:06:19.839Z,42.90
2022-11-28T07:08:49.107Z,57.80
2022-11-28T07:11:18.963Z,46.92
2022-11-28T07:13:49.897Z,41.97
2022-11-28T07:16:18.431Z,41.28
2022-11-28T07:18:53.597Z,43.28
2022-11-28T07:21:24.398Z,39.17
2022-11-28T07:23:51.444Z,48.83
2022-11-28T07:26:22.087Z,57.83
2022-11-28T07:28:49.604Z,55.08
2022-11-28T07:31:21.964Z,54.35
2022-11-28T07:33:58.997Z,52.05
2022-11-28T07:36:27.751Z,46.00
2022-11-28T07:39:00.377Z,45.00
2022-11-28T07:41:32.089Z,48.07
2022-11-28T07:44:00.317Z,46.63
2022-11-28T07:46:31.107Z,46.83
2022-11-28T07:49:03.255Z,44.60
2022-11-28T07:51:32.649Z,43.63
2022-11-28T07:54:01.072Z,33.30
2022-11-28T07:56:57.326Z,42.65
2022-11-28T07:59:23.758Z,51.80
2022-11-28T08:01:56.241Z,49.28
2022-11-28T08:04:25.785Z,43.65
2022-11-28T08:06:53.084Z,35.00
2022-11-28T08:09:23.103Z,38.33
2022-11-28T08:11:52.605Z,36.13
2022-11-28T08:14:26.914Z,39.65
2022-11-28T08:16:53.718Z,35.17
2022-11-28T08:19:24.733Z,38.63
2022-11-28T08:21:58.114Z,35.53
2022-11-28T08:24:28.133Z,40.80
2022-11-28T08:27:00.735Z,39.65
2022-11-28T08:31:56.286Z,40.03
2022-11-28T08:34:26.023Z,47.15
2022-11-28T08:36:59.107Z,44.30
2022-11-28T08:39:28.399Z,49.67
2022-11-28T08:41:59.702Z,50.65
2022-11-28T08:44:30.594Z,47.67
2022-11-28T08:47:02.997Z,43.60
2022-11-28T08:49:29.707Z,51.97
2022-11-28T08:51:58.814Z,52.42
2022-11-28T08:54:25.501Z,50.38
2022-11-28T08:56:55.242Z,54.13
2022-11-28T08:59:24.232Z,50.72
2022-11-28T09:02:00.053Z,60.67
2022-11-28T09:04:31.036Z,59.63
2022-11-28T09:07:04.064Z,60.28
2022-11-28T09:09:43.339Z,69.20
2022-11-28T09:12:11.006Z,72.10
2022-11-28T09:14:40.684Z,51.63
2022-11-28T09:17:07.440Z,57.70
2022-11-28T09:19:34.279Z,80.03
2022-11-28T09:22:03.668Z,47.17
2022-11-28T09:24:34.217Z,46.08
2022-11-28T09:27:03.477Z,45.70
2022-11-28T09:29:30.979Z,47.03
2022-11-28T09:31:57.765Z,62.67
2022-11-28T09:34:24.621Z,38.85
2022-11-28T09:36:51.342Z,47.85
2022-11-28T09:39:18.761Z,53.53
2022-11-28T09:42:05.009Z,44.65
2022-11-28T09:44:43.309Z,40.53
2022-11-28T09:47:16.782Z,52.10
2022-11-28T09:49:49.323Z,47.38
2022-11-28T09:52:26.824Z,46.00
2022-11-28T09:55:06.264Z,51.65
2022-11-28T09:57:39.120Z,39.85
2022-11-28T10:00:06.727Z,49.85
2022-11-28T10:02:43.863Z,39.85
2022-11-28T10:05:29.522Z,56.85
2022-11-28T10:07:59.213Z,37.22
2022-11-28T10:10:48.944Z,44.30
2022-11-28T10:13:59.832Z,38.75
2022-11-28T10:16:26.056Z,51.60
2022-11-28T10:18:59.197Z,52.75
2022-11-28T10:21:28.866Z,46.95
2022-11-28T10:23:58.193Z,46.70
2022-11-28T10:26:31.304Z,48.22
2022-11-28T10:29:01.221Z,46.63
2022-11-28T10:31:32.283Z,46.13
2022-11-28T10:34:14.761Z,42.83
2022-11-28T10:36:52.524Z,46.50
2022-11-28T10:39:19.588Z,43.60
2022-11-28T10:42:11.726Z,42.05
2022-11-28T10:44:52.033Z,42.03
2022-11-28T10:47:21.585Z,62.08
2022-11-28T10:49:48.246Z,60.10
2022-11-28T10:52:30.875Z,47.60
2022-11-28T10:55:12.702Z,57.83
2022-11-28T10:57:43.884Z,48.05
2022-11-28T11:00:13.206Z,50.70
2022-11-28T11:02:42.949Z,52.88
2022-11-28T11:05:15.129Z,54.20
2022-11-28T11:07:52.500Z,52.35
2022-11-28T11:10:21.190Z,68.40
2022-11-28T11:12:50.156Z,65.80
2022-11-28T11:15:19.101Z,58.05
2022-11-28T11:17:45.911Z,58.45
2022-11-28T11:20:31.407Z,56.60
2022-11-28T11:22:59.509Z,57.70
2022-11-28T11:25:28.399Z,55.95
2022-11-28T11:27:56.949Z,63.28
2022-11-28T11:30:41.982Z,53.83
2022-11-28T11:33:15.643Z,63.70
2022-11-28T11:35:44.285Z,52.15
2022-11-28T11:38:26.352Z,52.67
2022-11-28T11:40:54.146Z,52.38
2022-11-28T11:43:31.979Z,60.15
2022-11-28T11:46:12.595Z,54.80
2022-11-28T11:48:44.012Z,56.30
2022-11-28T11:51:32.761Z,49.90
2022-11-28T11:54:15.808Z,54.00
2022-11-28T11:56:44.169Z,51.30
2022-11-28T11:59:16.494Z,55.25
2022-11-28T12:01:44.932Z,58.15
2022-11-28T12:04:44.260Z,58.10
2022-11-28T12:07:28.430Z,56.25
2022-11-28T12:09:58.560Z,49.97
2022-11-28T12:12:32.083Z,52.35
2022-11-28T12:14:58.793Z,56.50
2022-11-28T12:20:28.972Z,53.03
2022-11-28T12:23:07.224Z,61.90
2022-11-28T12:25:39.809Z,51.88
2022-11-28T12:28:12.854Z,60.10
2022-11-28T12:30:58.189Z,51.57
2022-11-28T12:33:39.944Z,55.10
2022-11-28T12:36:18.811Z,54.08
2022-11-28T12:38:48.874Z,52.10
2022-11-28T12:41:34.097Z,43.92
2022-11-28T12:44:13.046Z,44.17
2022-11-28T12:46:59.424Z,39.38
2022-11-28T12:49:42.160Z,39.05
2022-11-28T12:52:09.329Z,34.75
2022-11-28T12:54:54.351Z,36.47
2022-11-28T12:57:33.557Z,39.45
2022-11-28T13:00:09.177Z,45.83
2022-11-28T13:02:39.044Z,45.85
2022-11-28T13:05:24.136Z,51.42
2022-11-28T13:08:03.380Z,50.72
2022-11-28T13:10:35.206Z,42.22
2022-11-28T13:13:08.333Z,45.10
2022-11-28T13:15:41.186Z,47.37
2022-11-28T13:18:26.530Z,42.20
2022-11-28T13:20:59.230Z,45.90
2022-11-28T13:23:35.887Z,45.35
2022-11-28T13:26:08.477Z,43.60
2022-11-28T13:28:53.800Z,48.28
2022-11-28T13:31:27.572Z,46.45
2022-11-28T13:33:56.715Z,44.17
2022-11-28T13:40:01.332Z,44.17
2022-11-28T13:43:03.369Z,47.65
2022-11-28T13:45:32.789Z,43.28
2022-11-28T13:48:00.775Z,50.90
2022-11-28T13:50:27.843Z,50.97
2022-11-28T13:52:57.595Z,51.47
2022-11-28T13:55:36.525Z,52.65
2022-11-28T13:58:22.280Z,47.03
2022-11-28T14:01:00.664Z,52.97
2022-11-28T14:03:27.720Z,56.83
2022-11-28T14:05:59.158Z,52.97
2022-11-28T14:08:28.545Z,64.97
2022-11-28T14:11:24.099Z,55.38
2022-11-28T14:14:01.133Z,55.45
2022-11-28T14:16:45.489Z,61.60
2022-11-28T14:19:22.212Z,62.95
2022-11-28T14:21:52.124Z,60.65
2022-11-28T14:24:19.939Z,55.55
2022-11-28T14:26:54.525Z,58.63
2022-11-28T14:29:26.475Z,58.20
2022-11-28T14:32:22.199Z,69.35
2022-11-28T14:34:41.353Z,65.00
2022-11-28T14:37:21.382Z,71.85
2022-11-28T14:39:49.535Z,64.57
2022-11-28T14:42:36.766Z,72.95
2022-11-28T14:45:21.901Z,62.85
2022-11-28T14:48:08.136Z,65.65
2022-11-28T14:50:37.673Z,71.88
2022-11-28T14:53:28.657Z,96.82
2022-11-28T14:56:08.958Z,73.40
2022-11-28T14:58:36.641Z,80.22
2022-11-28T15:01:07.413Z,72.93
2022-11-28T15:03:37.493Z,77.72
2022-11-28T15:06:24.475Z,74.45
2022-11-28T15:08:57.229Z,67.07
2022-11-28T15:11:23.968Z,73.93
2022-11-28T15:14:04.364Z,80.07
2022-11-28T15:16:35.394Z,68.22
2022-11-28T15:19:08.652Z,63.83
2022-11-28T15:21:45.967Z,60.05
2022-11-28T15:24:20.727Z,66.68
2022-11-28T15:26:50.778Z,80.57
2022-11-28T15:29:22.927Z,73.55
2022-11-28T15:31:51.967Z,64.88
2022-11-28T15:34:30.176Z,63.25
2022-11-28T15:36:59.461Z,65.82
2022-11-28T15:39:26.569Z,58.65
2022-11-28T15:41:53.874Z,55.00
2022-11-28T15:44:21.116Z,54.60
2022-11-28T15:46:48.442Z,55.25
2022-11-28T15:49:23.350Z,64.90
2022-11-28T15:51:54.964Z,66.95
2022-11-28T15:54:27.347Z,57.67
2022-11-28T15:56:58.042Z,60.38
2022-11-28T15:59:25.385Z,62.78
2022-11-28T16:01:59.059Z,72.30
2022-11-28T16:04:26.786Z,67.72
2022-11-28T16:06:55.067Z,61.95
2022-11-28T16:09:25.175Z,58.25
2022-11-28T16:11:53.336Z,62.90
2022-11-28T16:14:36.614Z,62.83
2022-11-28T16:17:09.071Z,61.58
2022-11-28T16:19:37.545Z,65.68
2022-11-28T16:22:24.809Z,72.40
2022-11-28T16:24:55.606Z,64.30
2022-11-28T16:27:31.967Z,61.17
2022-11-28T16:30:00.892Z,70.55
2022-11-28T16:32:38.725Z,65.53
2022-11-28T16:35:07.326Z,63.63
2022-11-28T16:37:34.406Z,66.95
2022-11-28T16:40:21.685Z,68.65
2022-11-28T16:42:52.451Z,62.92
2022-11-28T16:45:28.265Z,69.95
2022-11-28T16:48:14.924Z,65.95
2022-11-28T16:51:07.505Z,62.58
2022-11-28T16:53:45.329Z,68.57
2022-11-28T16:56:26.970Z,64.63
2022-11-28T16:59:01.464Z,62.05
2022-11-28T17:01:30.616Z,60.00
2022-11-28T17:03:58.046Z,65.20
2022-11-28T17:06:29.150Z,69.22
2022-11-28T17:08:56.927Z,65.05
2022-11-28T17:11:27.256Z,59.55
2022-11-28T17:13:57.530Z,70.32
2022-11-28T17:16:26.068Z,62.38
2022-11-28T17:18:53.269Z,72.45
2022-11-28T17:21:29.367Z,67.75
2022-11-28T17:23:57.166Z,64.57
2022-11-28T17:26:24.445Z,63.42
2022-11-28T17:28:51.641Z,65.50
2022-11-28T17:31:19.223Z,68.10
2022-11-28T17:33:46.443Z,68.28
2022-11-28T17:36:13.485Z,61.83
2022-11-28T17:38:40.661Z,71.43
2022-11-28T17:41:12.079Z,66.90
2022-11-28T17:43:47.189Z,65.43
2022-11-28T17:46:16.122Z,62.03
2022-11-28T17:48:43.327Z,63.85
2022-11-28T17:51:11.016Z,65.60
2022-11-28T17:53:38.829Z,64.30
2022-11-28T17:56:06.345Z,66.68
2022-11-28T17:58:33.995Z,64.63
2022-11-28T18:01:01.442Z,71.30
2022-11-28T18:03:29.460Z,72.90
2022-11-28T18:05:56.523Z,80.38
2022-11-28T18:08:23.511Z,84.47
2022-11-28T18:11:02.360Z,82.53
2022-11-28T18:13:29.685Z,92.30
2022-11-28T18:15:59.360Z,73.95
2022-11-28T18:18:34.729Z,75.05
2022-11-28T18:21:03.812Z,70.22
2022-11-28T18:23:32.310Z,75.72
2022-11-28T18:25:59.524Z,68.10
2022-11-28T18:28:27.001Z,58.28
2022-11-28T18:30:54.345Z,60.50
2022-11-28T18:33:21.910Z,65.78
2022-11-28T18:35:49.076Z,54.95
2022-11-28T18:38:16.077Z,59.17
2022-11-28T18:40:43.374Z,58.70
2022-11-28T18:43:13.247Z,61.00
2022-11-28T18:45:41.302Z,55.22
2022-11-28T18:48:08.391Z,65.18
2022-11-28T18:50:35.117Z,64.03
2022-11-28T18:53:02.855Z,64.72
2022-11-28T18:55:29.980Z,56.20
2022-11-28T18:57:57.294Z,49.30
2022-11-28T19:00:24.496Z,53.85
2022-11-28T19:02:52.195Z,56.83
2022-11-28T19:05:19.104Z,55.40
2022-11-28T19:07:46.114Z,53.35
2022-11-28T19:10:13.124Z,49.13
2022-11-28T19:12:41.096Z,53.55
2022-11-28T19:15:08.066Z,64.00
2022-11-28T19:17:35.746Z,54.28
2022-11-28T19:20:03.730Z,54.75
2022-11-28T19:22:31.241Z,66.13
2022-11-28T19:24:57.989Z,64.18
2022-11-28T19:27:25.770Z,54.95
2022-11-28T19:29:53.221Z,57.78
2022-11-28T19:32:20.282Z,58.90
2022-11-28T19:34:52.193Z,61.90
2022-11-28T19:37:19.019Z,63.90
2022-11-28T19:39:46.863Z,59.58
2022-11-28T19:42:13.738Z,61.35
2022-11-28T19:44:40.854Z,68.38
2022-11-28T19:47:07.869Z,62.38
2022-11-28T19:49:34.654Z,63.97
2022-11-28T19:52:02.458Z,72.88
2022-11-28T19:54:29.632Z,72.93
2022-11-28T19:56:56.920Z,60.90
2022-11-28T19:59:23.881Z,66.68
2022-11-28T20:01:52.699Z,77.20
2022-11-28T20:04:20.315Z,64.90
2022-11-28T20:06:47.117Z,61.20
2022-11-28T20:09:13.979Z,246.32
2022-11-28T20:11:44.353Z,235.63
2022-11-28T20:14:13.090Z,137.55
2022-11-28T20:16:40.830Z,86.75
2022-11-28T20:19:09.830Z,74.72
2022-11-28T20:21:37.344Z,71.72
2022-11-28T20:24:07.390Z,77.30
2022-11-28T20:26:39.773Z,81.72
2022-11-28T20:29:07.512Z,83.53
2022-11-28T20:31:35.771Z,80.38
2022-11-28T20:34:04.462Z,76.80
2022-11-28T20:36:32.079Z,76.55
2022-11-28T20:38:59.613Z,76.28
2022-11-28T20:41:26.932Z,75.80
2022-11-28T20:43:53.658Z,73.63
2022-11-28T20:46:21.744Z,77.05
2022-11-28T20:48:48.625Z,84.03
2022-11-28T20:51:19.770Z,85.65
2022-11-28T20:53:47.085Z,83.75
2022-11-28T20:56:18.557Z,81.47
2022-11-28T20:58:45.727Z,77.03
2022-11-28T21:01:15.564Z,74.22
2022-11-28T21:03:42.828Z,80.63
2022-11-28T21:06:09.616Z,84.50
2022-11-28T21:08:36.827Z,86.20
2022-11-28T21:11:07.569Z,82.38
2022-11-28T21:13:34.258Z,80.45
2022-11-28T21:16:06.228Z,83.43
2022-11-28T21:18:34.804Z,90.97
2022-11-28T21:21:06.680Z,96.15
2022-11-28T21:23:33.950Z,114.60
2022-11-28T21:26:13.129Z,94.65
2022-11-28T21:28:40.569Z,90.50
2022-11-28T21:31:09.420Z,95.68
2022-11-28T21:33:36.134Z,106.85
2022-11-28T21:36:04.398Z,107.60
2022-11-28T21:38:31.631Z,113.15
2022-11-28T21:41:00.329Z,113.00
2022-11-28T21:43:28.333Z,102.05
2022-11-28T21:45:55.443Z,93.60
2022-11-28T21:48:22.936Z,91.32
2022-11-28T21:50:50.730Z,87.93
2022-11-28T21:53:17.941Z,79.10
2022-11-28T21:55:44.879Z,78.18
2022-11-28T21:58:11.785Z,72.13
2022-11-28T22:00:53.167Z,69.75
2022-11-28T22:03:23.974Z,68.63
2022-11-28T22:05:53.989Z,74.50
2022-11-28T22:08:20.773Z,73.85
2022-11-28T22:10:47.957Z,70.57
2022-11-28T22:13:14.838Z,68.72
2022-11-28T22:15:43.404Z,72.80
2022-11-28T22:18:10.685Z,74.63
2022-11-28T22:20:43.543Z,72.15
2022-11-28T22:23:11.529Z,67.30
2022-11-28T22:25:38.353Z,75.05
2022-11-28T22:28:05.061Z,69.57
2022-11-28T22:30:31.769Z,68.60
2022-11-28T22:32:59.235Z,67.75
2022-11-28T22:35:32.285Z,62.15
2022-11-28T22:37:59.077Z,66.15
2022-11-28T22:40:25.814Z,74.22
2022-11-28T22:42:56.463Z,78.72
2022-11-28T22:45:23.406Z,66.47
2022-11-28T22:47:50.080Z,76.40
2022-11-28T22:50:16.955Z,68.82
2022-11-28T22:52:44.263Z,68.68
2022-11-28T22:55:11.051Z,70.95
2022-11-28T22:57:38.068Z,71.05
2022-11-28T23:00:06.678Z,65.22
2022-11-28T23:02:33.735Z,65.22
2022-11-28T23:05:00.814Z,64.70
2022-11-28T23:07:28.097Z,61.75
2022-11-28T23:09:55.070Z,61.17
2022-11-28T23:12:22.134Z,69.10
2022-11-28T23:14:49.051Z,71.35
2022-11-28T23:17:15.780Z,74.68
2022-11-28T23:19:42.477Z,69.72
2022-11-28T23:22:09.631Z,68.68
2022-11-28T23:24:36.431Z,72.68
2022-11-28T23:27:03.201Z,67.85
2022-11-28T23:29:30.117Z,68.50
2022-11-28T23:31:57.646Z,65.40
2022-11-28T23:34:26.324Z,63.65
2022-11-28T23:36:53.013Z,76.63
2022-11-28T23:39:20.935Z,70.45
2022-11-28T23:41:48.213Z,65.72
2022-11-28T23:44:15.964Z,61.65
2022-11-28T23:46:43.168Z,63.33
2022-11-28T23:49:09.957Z,59.75
2022-11-28T23:51:37.340Z,59.08
2022-11-28T23:54:04.479Z,64.18
2022-11-28T23:56:32.900Z,66.63
2022-11-28T23:59:01.121Z,64.05
